Chicago, Illinois
Current Conditions -  °F | °C
As of 12:53 PM on Friday 24 Oct 2014 (Local Time) from KMDW Reporting Station
Broken Clouds Broken Clouds  
Wind Chill: 63°   Ceiling: 25000
Heat Index: 63°   Visibility: 10mi
Dew Point: 50°   Wind: 6mph
Humidity: 63%   Direction: 220°SW
Pressure: 30.02"   Gusts: NA
Location:  41.88°N, 87.63°W
Report Text: KMDW 241753Z 22005KT 10SM FEW025 SCT200 BKN250 17/10 A3002 RMK AO2 SLP162 T01720100 10178 20122 58015
Loading
Personal Weather Stations






























Interactive Weather Map
Tropical Storm Tracking
New forecast layout! Learn more

10-Day Weather Forecast

Advertisements
Track Severe Weather on mobile